Time;durP1;ratioP1;P1;durP2;ratioP2;P2;SDS_P1;SDS_P2;PMS_P1;PMS_P2;Temp;Humidity;BMP_temperature;BMP_pressure;BME280_temperature;BME280_humidity;BME280_pressure;Samples;Min_cycle;Max_cycle;Signal;HPM_P1;HPM_P2
2021/09/02 00:00:33;;;;;;;7.55;3.60;;;12.80;99.90;;;;;;4952928;28;20216;-70
2021/09/02 00:03:00;;;;;;;7.70;3.67;;;12.80;99.90;;;;;;4952201;28;20055;-67
2021/09/02 00:05:28;;;;;;;6.85;2.75;;;12.80;99.90;;;;;;4952767;28;20079;-67
2021/09/02 00:07:55;;;;;;;5.53;2.80;;;12.70;99.90;;;;;;4951127;28;20047;-69
2021/09/02 00:10:22;;;;;;;4.50;2.88;;;12.70;99.90;;;;;;4953370;28;20078;-65
2021/09/02 00:12:50;;;;;;;6.53;3.30;;;12.70;99.90;;;;;;4953029;28;20138;-65
2021/09/02 00:15:17;;;;;;;4.68;3.63;;;12.60;99.90;;;;;;4953263;28;20075;-67
2021/09/02 00:17:44;;;;;;;7.65;3.17;;;12.60;99.90;;;;;;4951776;28;20055;-66
2021/09/02 00:20:11;;;;;;;6.03;2.45;;;12.50;99.90;;;;;;4953423;28;20449;-68
2021/09/02 00:22:38;;;;;;;4.13;2.42;;;12.40;99.90;;;;;;4952483;28;20074;-67
2021/09/02 00:25:05;;;;;;;4.55;2.63;;;12.40;99.90;;;;;;4952700;28;20078;-69
2021/09/02 00:27:33;;;;;;;5.38;2.42;;;12.40;99.90;;;;;;4952884;28;20134;-67
2021/09/02 00:30:00;;;;;;;4.40;2.20;;;12.30;99.90;;;;;;4951049;28;20062;-66
2021/09/02 00:32:27;;;;;;;4.95;2.58;;;12.30;99.90;;;;;;4952217;28;20074;-71
2021/09/02 00:34:54;;;;;;;7.00;2.75;;;12.20;99.90;;;;;;4952204;28;20066;-67
2021/09/02 00:37:21;;;;;;;4.47;2.63;;;12.10;99.90;;;;;;4952475;28;20126;-69
2021/09/02 00:39:48;;;;;;;9.13;2.60;;;12.10;99.90;;;;;;4951246;28;20507;-65
2021/09/02 00:42:14;;;;;;;2.33;1.45;;;12.10;99.90;;;;;;4952214;28;20082;-65
2021/09/02 00:44:46;;;;;;;3.92;3.63;;;12.10;99.90;;;;;;4951437;28;20071;-67
2021/09/02 00:47:15;;;;;;;5.45;1.65;;;12.10;99.90;;;;;;4952198;28;20114;-65
2021/09/02 00:49:43;;;;;;;6.70;1.73;;;12.10;99.90;;;;;;4950647;28;20051;-66
2021/09/02 00:52:16;;;;;;;11.27;2.47;;;12.10;99.90;;;;;;4951993;28;20533;-71
2021/09/02 00:54:50;;;;;;;3.67;2.40;;;12.10;99.90;;;;;;4951860;28;20063;-67
2021/09/02 00:57:19;;;;;;;3.33;1.08;;;12.20;99.90;;;;;;4952253;28;20055;-64
2021/09/02 00:59:47;;;;;;;5.72;2.38;;;12.20;99.90;;;;;;4950652;28;20074;-67
2021/09/02 01:02:15;;;;;;;7.00;2.35;;;12.20;99.90;;;;;;4951244;28;20055;-70
2021/09/02 01:04:42;;;;;;;5.53;1.42;;;12.30;99.90;;;;;;4952436;28;20094;-65
2021/09/02 01:07:09;;;;;;;4.60;2.28;;;12.30;99.90;;;;;;4951611;28;20450;-67
2021/09/02 01:09:36;;;;;;;3.10;1.73;;;12.30;99.90;;;;;;4951902;28;20485;-65
2021/09/02 01:12:29;;;;;;;11.68;2.08;;;12.30;99.90;;;;;;4950034;28;20127;-70
2021/09/02 01:14:57;;;;;;;12.20;2.40;;;12.30;99.90;;;;;;4951734;28;20430;-69
2021/09/02 01:17:25;;;;;;;4.07;1.60;;;12.30;99.90;;;;;;4951959;28;20143;-66
2021/09/02 01:19:54;;;;;;;3.90;1.80;;;12.20;99.90;;;;;;4949777;28;20047;-65
2021/09/02 01:22:30;;;;;;;6.50;2.63;;;12.30;99.90;;;;;;4951658;28;20049;-66
2021/09/02 01:25:00;;;;;;;4.97;1.40;;;12.30;99.90;;;;;;4951780;28;20110;-65
2021/09/02 01:27:28;;;;;;;3.50;1.45;;;12.30;99.90;;;;;;4951463;28;20457;-70
2021/09/02 01:30:00;;;;;;;4.43;2.35;;;12.30;99.90;;;;;;4949912;28;20047;-67
2021/09/02 01:32:32;;;;;;;2.70;1.30;;;12.30;99.90;;;;;;4951259;28;20047;-68
2021/09/02 01:35:00;;;;;;;4.53;2.20;;;12.30;99.90;;;;;;4951661;28;20079;-66
2021/09/02 01:37:41;;;;;;;5.07;1.88;;;12.30;99.90;;;;;;4951083;28;20051;-67
2021/09/02 01:40:19;;;;;;;4.07;2.38;;;12.30;99.90;;;;;;4950457;28;20050;-68
2021/09/02 01:42:47;;;;;;;3.38;0.93;;;12.30;99.90;;;;;;4951865;28;20043;-65
2021/09/02 01:45:15;;;;;;;5.22;1.60;;;12.30;99.90;;;;;;4950882;28;20050;-68
2021/09/02 01:47:43;;;;;;;11.95;3.42;;;12.30;99.90;;;;;;4950334;28;20135;-70
2021/09/02 01:50:17;;;;;;;2.30;1.30;;;12.30;99.90;;;;;;4952082;28;20129;-67
2021/09/02 01:52:45;;;;;;;2.25;1.00;;;12.20;99.90;;;;;;4952348;28;20102;-66
2021/09/02 01:55:13;;;;;;;3.92;1.60;;;12.20;99.90;;;;;;4951857;28;20105;-67
2021/09/02 01:57:40;;;;;;;2.53;1.13;;;12.20;99.90;;;;;;4953552;28;20377;-67
2021/09/02 02:00:10;;;;;;;4.20;1.88;;;12.20;99.90;;;;;;4954720;28;20445;-66
2021/09/02 02:02:38;;;;;;;3.03;1.25;;;12.20;99.90;;;;;;4955688;28;20043;-69
2021/09/02 02:05:07;;;;;;;2.33;0.95;;;12.20;99.90;;;;;;4955858;28;20054;-67
2021/09/02 02:07:35;;;;;;;2.22;1.00;;;12.20;99.90;;;;;;4966152;28;20114;-66
2021/09/02 02:10:04;;;;;;;5.43;1.38;;;12.20;99.90;;;;;;4954172;28;20055;-67
2021/09/02 02:12:31;;;;;;;3.17;1.55;;;12.20;99.90;;;;;;4955469;28;20051;-66
2021/09/02 02:14:58;;;;;;;2.47;1.73;;;12.20;99.90;;;;;;4955686;28;20446;-68
2021/09/02 02:17:25;;;;;;;6.65;1.55;;;12.20;99.90;;;;;;4955138;28;20454;-69
2021/09/02 02:19:52;;;;;;;4.68;2.05;;;12.20;99.90;;;;;;4953990;28;20114;-67
2021/09/02 02:22:19;;;;;;;3.63;1.63;;;12.20;99.90;;;;;;4955155;28;20043;-65
2021/09/02 02:24:46;;;;;;;3.35;1.20;;;12.20;99.90;;;;;;4955557;28;20051;-68
2021/09/02 02:27:13;;;;;;;7.40;1.67;;;12.20;99.90;;;;;;4955263;28;20055;-64
2021/09/02 02:29:40;;;;;;;3.78;1.67;;;12.20;99.90;;;;;;4955569;28;20055;-68
2021/09/02 02:32:08;;;;;;;3.95;1.42;;;12.20;99.90;;;;;;4954116;28;20047;-68
2021/09/02 02:34:34;;;;;;;3.75;1.45;;;12.20;99.90;;;;;;4955070;28;20070;-67
2021/09/02 02:37:02;;;;;;;7.63;2.35;;;12.20;99.90;;;;;;4955131;28;20613;-67
2021/09/02 02:39:29;;;;;;;4.50;1.50;;;12.20;99.90;;;;;;4955432;28;20051;-66
2021/09/02 02:41:56;;;;;;;6.30;1.83;;;12.20;99.90;;;;;;4953499;28;20048;-65
2021/09/02 02:44:23;;;;;;;7.03;2.22;;;12.20;99.90;;;;;;4955022;28;20047;-67
2021/09/02 02:46:50;;;;;;;10.52;1.95;;;12.20;99.90;;;;;;4954867;28;20098;-67
2021/09/02 02:49:17;;;;;;;4.47;1.65;;;12.20;99.90;;;;;;4954858;28;20473;-66
2021/09/02 02:51:44;;;;;;;1.45;1.00;;;12.20;99.90;;;;;;4953620;28;20372;-70
2021/09/02 02:54:11;;;;;;;3.88;1.88;;;12.20;99.90;;;;;;4954455;28;20404;-68
2021/09/02 02:56:37;;;;;;;5.93;1.35;;;12.20;99.90;;;;;;4954987;28;20098;-68
2021/09/02 02:59:04;;;;;;;7.40;1.73;;;12.20;99.90;;;;;;4954345;28;20063;-67
2021/09/02 03:01:31;;;;;;;2.97;1.38;;;12.20;99.90;;;;;;4954883;28;20075;-69
2021/09/02 03:03:59;;;;;;;11.00;1.83;;;12.10;99.90;;;;;;4952437;28;20043;-68
2021/09/02 03:06:26;;;;;;;3.60;1.30;;;12.10;99.90;;;;;;4953914;28;20043;-65
2021/09/02 03:08:53;;;;;;;3.40;1.38;;;12.10;99.90;;;;;;4953157;28;20104;-71
2021/09/02 03:11:20;;;;;;;4.57;2.08;;;12.20;99.90;;;;;;4953773;28;20089;-66
2021/09/02 03:13:47;;;;;;;8.50;1.70;;;12.20;99.90;;;;;;4952340;28;20063;-67
2021/09/02 03:16:14;;;;;;;7.10;1.83;;;12.20;99.90;;;;;;4953343;28;20047;-68
2021/09/02 03:18:41;;;;;;;3.25;1.77;;;12.10;99.90;;;;;;4953617;28;20053;-70
2021/09/02 03:21:08;;;;;;;3.40;1.13;;;12.10;99.90;;;;;;4953294;28;20055;-67
2021/09/02 03:23:36;;;;;;;6.90;1.30;;;12.10;99.90;;;;;;4968422;28;20048;-65
2021/09/02 03:26:03;;;;;;;6.35;2.15;;;12.10;99.90;;;;;;4952197;28;20114;-65
2021/09/02 03:28:30;;;;;;;3.10;1.30;;;12.10;99.90;;;;;;4953275;28;20043;-68
2021/09/02 03:30:57;;;;;;;13.15;1.67;;;12.10;99.90;;;;;;4953187;28;20078;-70
2021/09/02 03:33:24;;;;;;;5.90;2.17;;;12.10;99.90;;;;;;4953183;28;20053;-66
2021/09/02 03:35:52;;;;;;;4.03;1.42;;;12.10;99.90;;;;;;4952110;28;20051;-66
2021/09/02 03:38:19;;;;;;;3.70;1.10;;;12.10;99.90;;;;;;4953960;28;20043;-67
2021/09/02 03:40:46;;;;;;;4.22;2.05;;;12.10;99.90;;;;;;4953386;28;20386;-66
2021/09/02 03:43:13;;;;;;;5.03;1.42;;;12.00;99.90;;;;;;4953444;28;20485;-68
2021/09/02 03:45:40;;;;;;;2.92;1.70;;;12.00;99.90;;;;;;4953378;28;20059;-71
2021/09/02 03:48:07;;;;;;;3.63;1.33;;;12.00;99.90;;;;;;4951954;28;20134;-68
2021/09/02 03:50:34;;;;;;;4.95;1.27;;;12.00;99.90;;;;;;4953040;28;20051;-66
2021/09/02 03:53:01;;;;;;;2.30;1.33;;;12.00;99.90;;;;;;4952722;28;20043;-69
2021/09/02 03:55:28;;;;;;;10.63;2.70;;;12.00;99.90;;;;;;4953738;28;20119;-68
2021/09/02 03:57:55;;;;;;;7.85;1.42;;;12.00;99.90;;;;;;4952605;28;20047;-66
2021/09/02 04:00:22;;;;;;;1.90;1.13;;;12.00;99.90;;;;;;4953566;28;20047;-68
2021/09/02 04:02:48;;;;;;;5.93;2.20;;;12.00;99.90;;;;;;4953646;28;20051;-67
2021/09/02 04:05:16;;;;;;;4.57;1.58;;;12.00;99.90;;;;;;4953103;28;20476;-66
2021/09/02 04:07:43;;;;;;;3.25;1.75;;;12.00;99.90;;;;;;4951199;28;20055;-69
2021/09/02 04:10:10;;;;;;;2.83;1.40;;;11.90;99.90;;;;;;4952937;28;20051;-67
2021/09/02 04:12:37;;;;;;;5.65;2.28;;;11.90;99.90;;;;;;4952702;28;20473;-66
2021/09/02 04:15:05;;;;;;;8.63;1.95;;;11.90;99.90;;;;;;4953096;28;20109;-69
2021/09/02 04:17:33;;;;;;;7.68;2.03;;;11.90;99.90;;;;;;4952683;28;20094;-70
2021/09/02 04:20:00;;;;;;;5.18;1.45;;;11.90;99.90;;;;;;4950260;28;20059;-68
2021/09/02 04:22:26;;;;;;;4.25;1.40;;;11.90;99.90;;;;;;4952975;28;20047;-66
2021/09/02 04:24:53;;;;;;;6.80;1.55;;;11.90;99.90;;;;;;4953029;28;20528;-71
2021/09/02 04:27:20;;;;;;;5.80;1.83;;;11.90;99.90;;;;;;4952673;28;20047;-69
2021/09/02 04:29:47;;;;;;;2.95;2.55;;;11.90;99.90;;;;;;4951162;28;20051;-68
2021/09/02 04:32:14;;;;;;;11.82;1.55;;;11.90;99.90;;;;;;4952250;28;20051;-65
2021/09/02 04:34:41;;;;;;;5.03;1.60;;;11.90;99.90;;;;;;4952780;28;20050;-67
2021/09/02 04:37:08;;;;;;;2.45;1.73;;;11.90;99.90;;;;;;4952920;28;20098;-66
2021/09/02 04:39:35;;;;;;;4.57;1.40;;;11.90;99.90;;;;;;4953171;28;20086;-65
2021/09/02 04:42:02;;;;;;;6.82;1.63;;;11.90;99.90;;;;;;4952251;28;20158;-67
2021/09/02 04:44:29;;;;;;;4.05;1.25;;;11.90;99.90;;;;;;4953455;28;20043;-69
2021/09/02 04:46:56;;;;;;;4.32;1.50;;;11.90;99.90;;;;;;4953458;28;20063;-65
2021/09/02 04:49:23;;;;;;;4.65;1.58;;;11.90;99.90;;;;;;4953592;28;20048;-65
2021/09/02 04:51:50;;;;;;;4.90;2.33;;;11.90;99.90;;;;;;4952005;28;20059;-66
2021/09/02 04:54:17;;;;;;;3.53;1.42;;;11.90;99.90;;;;;;4953575;28;20433;-65
2021/09/02 04:56:44;;;;;;;4.30;1.00;;;11.90;99.90;;;;;;4953130;28;20462;-66
2021/09/02 04:59:11;;;;;;;4.00;1.40;;;11.90;99.90;;;;;;4953101;28;20083;-66
2021/09/02 05:01:38;;;;;;;7.18;2.40;;;11.90;99.90;;;;;;4952940;28;20094;-66
2021/09/02 05:04:05;;;;;;;8.18;2.28;;;12.00;99.90;;;;;;4951074;28;20377;-66
2021/09/02 05:06:32;;;;;;;5.18;1.92;;;12.00;99.90;;;;;;4952797;28;20047;-66
2021/09/02 05:08:59;;;;;;;5.68;2.13;;;12.00;99.90;;;;;;4952703;28;20055;-66
2021/09/02 05:11:27;;;;;;;3.65;1.38;;;12.00;99.90;;;;;;4953064;28;20048;-65
2021/09/02 05:13:54;;;;;;;8.35;2.03;;;12.10;99.90;;;;;;4951906;28;20114;-66
2021/09/02 05:16:21;;;;;;;2.75;1.25;;;12.10;99.90;;;;;;4952827;28;20043;-67
2021/09/02 05:18:49;;;;;;;2.90;1.77;;;12.10;99.90;;;;;;4952540;28;20378;-64
2021/09/02 05:21:16;;;;;;;4.20;1.27;;;12.00;99.90;;;;;;4952798;28;20158;-69
2021/09/02 05:23:43;;;;;;;5.32;1.27;;;12.00;99.90;;;;;;4950857;28;20101;-69
2021/09/02 05:26:09;;;;;;;3.78;1.10;;;12.10;99.90;;;;;;4952223;28;20375;-64
2021/09/02 05:28:36;;;;;;;3.60;2.22;;;12.10;99.90;;;;;;4952088;28;20039;-64
2021/09/02 05:31:03;;;;;;;1.58;1.15;;;12.10;99.90;;;;;;4951980;28;20055;-68
2021/09/02 05:33:30;;;;;;;8.43;2.08;;;12.10;99.90;;;;;;4952051;28;20054;-69
2021/09/02 05:35:58;;;;;;;3.95;1.15;;;12.10;99.90;;;;;;4950840;28;20114;-64
2021/09/02 05:38:25;;;;;;;4.00;0.90;;;12.10;99.90;;;;;;4952136;28;20044;-67
2021/09/02 05:40:52;;;;;;;5.68;1.85;;;12.10;99.90;;;;;;4966649;28;20150;-70
2021/09/02 05:43:21;;;;;;;3.42;1.48;;;12.10;99.90;;;;;;4952203;28;20059;-64
2021/09/02 05:45:48;;;;;;;5.97;1.75;;;12.10;99.90;;;;;;4950494;28;20167;-64
2021/09/02 05:48:15;;;;;;;3.00;1.65;;;12.10;99.90;;;;;;4952102;28;20102;-64
2021/09/02 05:50:42;;;;;;;6.13;2.33;;;12.10;99.90;;;;;;4951700;28;20058;-66
2021/09/02 05:53:09;;;;;;;6.00;1.48;;;12.10;99.90;;;;;;4951851;28;20051;-66
2021/09/02 05:55:37;;;;;;;5.50;0.90;;;12.20;99.90;;;;;;4952141;28;20047;-65
2021/09/02 05:58:05;;;;;;;8.77;1.52;;;12.20;99.90;;;;;;4950308;28;20047;-65
2021/09/02 06:00:32;;;;;;;2.35;1.17;;;12.20;99.90;;;;;;4951847;28;20039;-67
2021/09/02 06:02:59;;;;;;;6.65;1.23;;;12.20;99.90;;;;;;4951191;28;20055;-64
2021/09/02 06:05:27;;;;;;;3.92;1.35;;;12.20;99.90;;;;;;4951914;28;20429;-64
2021/09/02 06:07:54;;;;;;;3.58;1.58;;;12.20;99.90;;;;;;4950487;28;20102;-65
2021/09/02 06:10:21;;;;;;;3.63;1.08;;;12.20;99.90;;;;;;4951563;28;20047;-67
2021/09/02 06:12:47;;;;;;;5.28;1.33;;;12.20;99.90;;;;;;4951357;28;20047;-65
2021/09/02 06:15:15;;;;;;;10.02;1.75;;;12.20;99.90;;;;;;4951418;28;20102;-66
2021/09/02 06:17:43;;;;;;;3.22;1.33;;;12.20;99.90;;;;;;4950098;28;20043;-68
2021/09/02 06:20:11;;;;;;;2.97;1.10;;;12.20;99.90;;;;;;4951122;28;20051;-67
2021/09/02 06:22:38;;;;;;;3.08;1.52;;;12.30;99.90;;;;;;4951366;28;20043;-64
2021/09/02 06:25:08;;;;;;;2.15;0.57;;;12.30;99.90;;;;;;4951569;28;20106;-65
2021/09/02 06:27:36;;;;;;;5.45;2.08;;;12.30;99.90;;;;;;4951424;28;20051;-66
2021/09/02 06:30:04;;;;;;;2.78;1.33;;;12.40;99.90;;;;;;4950167;28;20052;-67
2021/09/02 06:32:31;;;;;;;4.50;1.30;;;12.30;99.90;;;;;;4951596;28;20456;-66
2021/09/02 06:34:58;;;;;;;4.75;1.40;;;12.30;99.90;;;;;;4951493;28;20047;-64
2021/09/02 06:37:26;;;;;;;2.53;0.80;;;12.30;99.90;;;;;;4951616;28;20039;-69
2021/09/02 06:39:53;;;;;;;2.97;1.25;;;12.40;99.90;;;;;;4950173;28;20067;-66
2021/09/02 06:42:20;;;;;;;1.60;0.95;;;12.40;99.90;;;;;;4951571;28;20376;-64
2021/09/02 06:44:46;;;;;;;6.28;1.25;;;12.40;99.90;;;;;;4955130;28;20469;-67
2021/09/02 06:47:13;;;;;;;4.93;0.80;;;12.40;99.90;;;;;;4954944;28;20134;-66
2021/09/02 06:49:40;;;;;;;5.43;1.13;;;12.50;99.90;;;;;;4954886;28;20113;-64
2021/09/02 06:52:07;;;;;;;5.90;1.60;;;12.50;99.90;;;;;;4953501;28;20106;-65
2021/09/02 06:54:34;;;;;;;1.27;0.73;;;12.50;99.90;;;;;;4954583;28;20043;-65
2021/09/02 06:57:01;;;;;;;4.45;0.90;;;12.50;99.90;;;;;;4954569;28;20421;-67
2021/09/02 06:59:28;;;;;;;2.13;0.85;;;12.50;99.90;;;;;;4954779;28;20055;-65
2021/09/02 07:01:55;;;;;;;3.22;1.00;;;12.60;99.90;;;;;;4952746;28;20055;-66
2021/09/02 07:04:22;;;;;;;5.40;1.40;;;12.60;99.90;;;;;;4954502;28;20105;-67
2021/09/02 07:06:49;;;;;;;4.63;2.25;;;12.50;99.90;;;;;;4955037;28;20120;-64
2021/09/02 07:09:16;;;;;;;2.53;0.98;;;12.60;99.90;;;;;;4954250;28;20047;-66
2021/09/02 07:11:43;;;;;;;4.05;1.52;;;12.60;99.90;;;;;;4953070;28;20115;-70
2021/09/02 07:14:10;;;;;;;3.55;1.10;;;12.60;99.90;;;;;;4954569;28;20051;-65
2021/09/02 07:16:36;;;;;;;4.20;1.10;;;12.60;99.90;;;;;;4954440;28;20454;-64
2021/09/02 07:19:03;;;;;;;3.53;1.55;;;12.70;99.90;;;;;;4954211;28;20054;-69
2021/09/02 07:21:30;;;;;;;2.75;0.95;;;12.70;99.90;;;;;;4969194;28;20482;-68
2021/09/02 07:23:57;;;;;;;4.05;1.15;;;12.70;99.90;;;;;;4952923;28;20077;-64
2021/09/02 07:26:24;;;;;;;2.50;0.57;;;12.70;99.90;;;;;;4954203;28;20515;-67
2021/09/02 07:28:51;;;;;;;2.60;1.17;;;12.70;99.90;;;;;;4954390;28;20070;-64
2021/09/02 07:31:18;;;;;;;3.28;1.65;;;12.70;99.90;;;;;;4953997;28;20565;-65
2021/09/02 07:33:45;;;;;;;2.05;1.10;;;12.70;99.90;;;;;;4952617;28;20055;-70
2021/09/02 07:36:12;;;;;;;5.18;1.65;;;12.70;99.90;;;;;;4954214;28;20147;-66
2021/09/02 07:38:39;;;;;;;3.42;1.05;;;12.70;99.90;;;;;;4953808;28;20067;-63
2021/09/02 07:41:05;;;;;;;3.85;1.00;;;12.70;99.90;;;;;;4954015;28;20130;-68
2021/09/02 07:43:32;;;;;;;8.95;1.35;;;12.80;99.90;;;;;;4954098;28;20051;-64
2021/09/02 07:45:59;;;;;;;3.50;0.73;;;12.70;99.90;;;;;;4952322;28;20442;-64
2021/09/02 07:48:26;;;;;;;4.20;1.17;;;12.80;99.90;;;;;;4954209;28;20047;-63
2021/09/02 07:50:53;;;;;;;5.68;1.38;;;12.80;99.90;;;;;;4953938;28;20071;-66
2021/09/02 07:53:21;;;;;;;2.20;1.13;;;12.80;99.90;;;;;;4968314;28;20062;-65
2021/09/02 07:55:48;;;;;;;4.15;1.38;;;12.90;99.90;;;;;;4951288;28;20136;-65
2021/09/02 07:58:15;;;;;;;6.75;0.85;;;12.90;99.90;;;;;;4953672;28;20370;-65
2021/09/02 08:00:42;;;;;;;1.63;0.90;;;12.90;99.90;;;;;;4953686;28;20047;-70
2021/09/02 08:03:09;;;;;;;2.35;1.02;;;13.00;99.90;;;;;;4953088;28;20043;-70
2021/09/02 08:05:38;;;;;;;5.22;0.63;;;13.00;99.90;;;;;;4953857;28;20067;-68
2021/09/02 08:08:05;;;;;;;3.03;0.82;;;13.10;99.90;;;;;;4951491;28;20063;-66
2021/09/02 08:10:33;;;;;;;2.20;1.02;;;13.10;99.90;;;;;;4953541;28;20071;-65
2021/09/02 08:13:00;;;;;;;2.22;0.82;;;13.10;99.90;;;;;;4953376;28;20069;-64
2021/09/02 08:15:27;;;;;;;1.83;0.60;;;13.10;99.90;;;;;;4953197;28;20051;-64
2021/09/02 08:17:58;;;;;;;3.72;1.25;;;13.00;99.90;;;;;;4952257;28;20153;-67
2021/09/02 08:20:26;;;;;;;2.85;0.82;;;13.10;99.90;;;;;;4953597;28;20047;-69
2021/09/02 08:22:52;;;;;;;5.85;1.25;;;13.10;99.90;;;;;;4951953;28;20441;-66
2021/09/02 08:25:19;;;;;;;4.47;1.02;;;13.20;99.90;;;;;;4953755;28;20110;-67
2021/09/02 08:27:47;;;;;;;1.40;0.63;;;13.20;99.90;;;;;;4980153;28;20055;-65
2021/09/02 08:30:16;;;;;;;3.05;0.90;;;13.10;99.90;;;;;;4953620;28;20047;-68
2021/09/02 08:32:50;;;;;;;4.60;2.13;;;13.30;99.90;;;;;;4952957;28;20208;-68
2021/09/02 08:35:22;;;;;;;1.85;1.05;;;13.30;99.90;;;;;;4952968;28;20158;-66
2021/09/02 08:37:51;;;;;;;1.75;1.02;;;13.30;99.90;;;;;;4951798;28;20450;-64
2021/09/02 08:40:22;;;;;;;3.47;0.60;;;13.30;99.90;;;;;;4953125;28;20094;-64
2021/09/02 08:42:49;;;;;;;5.20;0.60;;;13.30;99.90;;;;;;4953465;28;20079;-64
2021/09/02 08:45:17;;;;;;;3.60;0.70;;;13.20;99.90;;;;;;4953009;28;20098;-66
2021/09/02 08:47:46;;;;;;;5.95;0.68;;;13.30;99.90;;;;;;4951352;28;20078;-68
2021/09/02 08:50:15;;;;;;;3.00;0.80;;;13.40;99.90;;;;;;4952925;28;20051;-68
2021/09/02 08:52:42;;;;;;;3.40;0.80;;;13.30;99.90;;;;;;4952825;28;20126;-70
2021/09/02 08:55:10;;;;;;;2.90;1.17;;;13.30;99.90;;;;;;4952785;28;20047;-66
2021/09/02 08:57:37;;;;;;;5.05;0.80;;;13.30;99.90;;;;;;4952815;28;20130;-64
2021/09/02 09:00:06;;;;;;;1.92;0.52;;;13.40;99.90;;;;;;4951358;28;20134;-67
2021/09/02 09:02:38;;;;;;;2.13;0.70;;;13.40;99.90;;;;;;4952439;28;20063;-67
2021/09/02 09:05:16;;;;;;;1.67;1.20;;;13.40;99.90;;;;;;4952541;28;20143;-65
2021/09/02 09:07:48;;;;;;;2.10;1.15;;;13.40;99.90;;;;;;4950669;28;20071;-64
2021/09/02 09:10:18;;;;;;;1.98;0.63;;;13.50;99.90;;;;;;4952308;28;20502;-67
2021/09/02 09:12:51;;;;;;;1.80;0.93;;;13.50;99.90;;;;;;4952713;28;20047;-67
2021/09/02 09:15:24;;;;;;;3.22;0.90;;;13.60;99.90;;;;;;4952550;28;20055;-66
2021/09/02 09:17:53;;;;;;;1.73;0.60;;;13.60;99.90;;;;;;4950923;28;20052;-68
2021/09/02 09:20:23;;;;;;;3.22;0.65;;;13.60;99.90;;;;;;4952496;28;20078;-67
2021/09/02 09:22:56;;;;;;;3.13;1.10;;;13.70;99.90;;;;;;4952883;28;20086;-67
2021/09/02 09:25:24;;;;;;;3.08;1.10;;;13.60;99.90;;;;;;4952467;28;20509;-67
2021/09/02 09:27:54;;;;;;;1.50;0.68;;;13.60;99.90;;;;;;4949792;28;20217;-65
2021/09/02 09:30:23;;;;;;;4.88;1.48;;;13.60;99.90;;;;;;4952266;28;20079;-68
2021/09/02 09:32:55;;;;;;;2.58;0.65;;;13.70;99.90;;;;;;4952477;28;20074;-67
2021/09/02 09:35:32;;;;;;;4.00;1.90;;;13.80;99.90;;;;;;4952624;28;20477;-68
2021/09/02 09:38:11;;;;;;;3.25;0.82;;;13.80;99.90;;;;;;4950955;28;20067;-66
2021/09/02 09:40:40;;;;;;;1.50;1.25;;;13.80;99.90;;;;;;4952602;28;20075;-65
2021/09/02 09:43:15;;;;;;;3.83;1.85;;;13.80;99.90;;;;;;4951942;28;20549;-67
2021/09/02 09:46:06;;;;;;;1.98;1.13;;;13.90;99.90;;;;;;4950392;28;20054;-67
2021/09/02 09:48:33;;;;;;;2.40;0.60;;;14.00;99.90;;;;;;4951823;28;20098;-65
2021/09/02 09:51:13;;;;;;;6.45;1.73;;;14.10;99.90;;;;;;4951936;28;20078;-65
2021/09/02 09:53:48;;;;;;;1.27;0.50;;;14.10;99.90;;;;;;4952100;28;20078;-65
2021/09/02 09:56:17;;;;;;;3.47;0.80;;;14.10;99.90;;;;;;4950544;28;20065;-67
2021/09/02 09:58:46;;;;;;;2.40;1.20;;;14.10;99.90;;;;;;4951816;28;20072;-66
2021/09/02 10:01:13;;;;;;;1.13;0.40;;;14.10;99.90;;;;;;4952107;28;20472;-68
2021/09/02 10:03:42;;;;;;;1.83;0.63;;;14.10;99.90;;;;;;4951840;28;20426;-64
2021/09/02 10:06:11;;;;;;;5.03;1.23;;;14.10;99.90;;;;;;4950117;28;20478;-66
2021/09/02 10:08:40;;;;;;;2.47;0.60;;;14.10;99.90;;;;;;4951941;28;20075;-66
2021/09/02 10:11:10;;;;;;;0.63;0.40;;;14.20;99.90;;;;;;4952138;28;20097;-67
2021/09/02 10:13:38;;;;;;;1.02;0.73;;;14.10;99.90;;;;;;4952020;28;20441;-67
2021/09/02 10:16:05;;;;;;;1.17;0.63;;;14.20;99.90;;;;;;4949919;28;20090;-68
2021/09/02 10:18:41;;;;;;;2.80;0.80;;;14.20;99.90;;;;;;4953254;28;20126;-64
2021/09/02 10:21:09;;;;;;;2.40;0.47;;;14.20;99.90;;;;;;4955773;28;20043;-68
2021/09/02 10:23:37;;;;;;;2.35;1.67;;;14.40;99.90;;;;;;4955609;28;20087;-68
2021/09/02 10:26:04;;;;;;;5.38;1.08;;;14.40;99.90;;;;;;4954242;28;20047;-68
2021/09/02 10:28:36;;;;;;;7.18;1.45;;;14.40;99.90;;;;;;4955642;28;20151;-64
2021/09/02 10:31:06;;;;;;;3.10;1.23;;;14.50;99.90;;;;;;4955434;28;20078;-64
2021/09/02 10:33:40;;;;;;;2.33;1.50;;;14.40;99.90;;;;;;4955088;28;20054;-70
2021/09/02 10:36:10;;;;;;;1.73;0.50;;;14.40;99.90;;;;;;4954188;28;20062;-67
2021/09/02 10:38:42;;;;;;;1.17;0.60;;;14.50;99.90;;;;;;4955454;28;20050;-65
2021/09/02 10:41:09;;;;;;;2.28;1.10;;;14.60;99.90;;;;;;4955316;28;20094;-64
2021/09/02 10:44:09;;;;;;;3.05;1.00;;;14.60;99.90;;;;;;4955103;28;20086;-64
2021/09/02 10:46:51;;;;;;;2.97;0.90;;;14.70;99.90;;;;;;4952864;28;20047;-64
2021/09/02 10:49:35;;;;;;;5.03;0.93;;;14.70;99.90;;;;;;4955340;28;20047;-67
2021/09/02 10:52:05;;;;;;;1.27;1.02;;;14.70;99.90;;;;;;4953333;28;20374;-69
2021/09/02 10:54:37;;;;;;;1.70;0.73;;;14.70;99.90;;;;;;4954855;28;20071;-67
2021/09/02 10:57:12;;;;;;;2.00;0.75;;;14.60;99.90;;;;;;4954936;28;20090;-67
2021/09/02 10:59:51;;;;;;;2.15;0.70;;;14.70;99.90;;;;;;4955031;28;20479;-64
2021/09/02 11:02:21;;;;;;;3.67;1.40;;;14.80;99.90;;;;;;4953174;28;20074;-65
2021/09/02 11:04:58;;;;;;;2.53;0.80;;;14.80;99.90;;;;;;4954981;28;20047;-68
2021/09/02 11:07:45;;;;;;;1.63;1.13;;;14.90;99.90;;;;;;4957085;28;20075;-65
2021/09/02 11:10:17;;;;;;;1.20;0.57;;;15.00;99.90;;;;;;4955374;28;20098;-68
2021/09/02 11:12:47;;;;;;;1.70;0.80;;;15.00;99.90;;;;;;4954883;28;20067;-64
2021/09/02 11:15:21;;;;;;;2.53;0.95;;;15.10;99.90;;;;;;4954633;28;20047;-66
2021/09/02 11:17:56;;;;;;;3.53;1.40;;;15.20;99.90;;;;;;4953227;28;20153;-64
2021/09/02 11:20:42;;;;;;;2.40;1.10;;;15.30;99.90;;;;;;4954756;28;20062;-66
2021/09/02 11:23:15;;;;;;;5.07;1.10;;;15.20;99.90;;;;;;4954033;28;20047;-66
2021/09/02 11:25:51;;;;;;;2.40;1.88;;;14.90;99.90;;;;;;4953002;28;20044;-66
2021/09/02 11:28:21;;;;;;;1.73;0.70;;;14.90;99.90;;;;;;4954391;28;20090;-65
2021/09/02 11:30:52;;;;;;;1.65;1.08;;;15.00;99.90;;;;;;4954292;28;20047;-70
2021/09/02 11:33:19;;;;;;;1.33;0.60;;;15.20;99.90;;;;;;4953982;28;20145;-68
2021/09/02 11:35:59;;;;;;;3.08;1.25;;;15.50;99.90;;;;;;4953049;28;20078;-68
2021/09/02 11:38:26;;;;;;;6.28;0.73;;;15.50;99.90;;;;;;4954205;28;20047;-64
2021/09/02 11:40:54;;;;;;;1.70;1.25;;;15.60;99.90;;;;;;4954422;28;20469;-67
2021/09/02 11:43:22;;;;;;;1.90;1.05;;;15.50;99.90;;;;;;4954372;28;20070;-65
2021/09/02 11:45:51;;;;;;;2.53;1.08;;;15.50;99.90;;;;;;4952698;28;20071;-66
2021/09/02 11:48:19;;;;;;;3.30;1.13;;;15.70;99.90;;;;;;4953940;28;20099;-67
2021/09/02 11:50:56;;;;;;;1.23;0.85;;;15.80;99.90;;;;;;4954056;28;20044;-69
2021/09/02 11:53:31;;;;;;;1.88;0.75;;;15.90;99.90;;;;;;4954531;28;20051;-65
2021/09/02 11:56:16;;;;;;;1.90;0.63;;;15.80;99.90;;;;;;4952513;28;20095;-66
2021/09/02 11:58:44;;;;;;;2.75;0.80;;;15.70;99.90;;;;;;4954043;28;20043;-66
2021/09/02 12:01:12;;;;;;;1.55;0.73;;;15.80;99.90;;;;;;4954144;28;20512;-66
2021/09/02 12:03:39;;;;;;;1.70;0.57;;;16.00;99.90;;;;;;4954007;28;20153;-66
2021/09/02 12:06:06;;;;;;;1.60;0.82;;;16.10;99.90;;;;;;4952366;28;20079;-70
2021/09/02 12:08:34;;;;;;;2.30;0.80;;;16.10;99.90;;;;;;4953621;28;20130;-66
2021/09/02 12:11:01;;;;;;;2.08;0.73;;;16.20;99.90;;;;;;4953686;28;20135;-66
2021/09/02 12:13:34;;;;;;;1.95;0.85;;;16.20;99.90;;;;;;4954866;28;20162;-67
2021/09/02 12:16:09;;;;;;;7.05;0.90;;;16.20;99.90;;;;;;4951469;28;21855;-67
2021/09/02 12:18:41;;;;;;;2.20;0.60;;;16.40;99.90;;;;;;4953176;28;20471;-68
2021/09/02 12:21:14;;;;;;;1.08;0.98;;;16.40;99.90;;;;;;4953112;28;20066;-68
2021/09/02 12:23:47;;;;;;;1.90;0.70;;;16.50;99.90;;;;;;4951123;28;20055;-67
2021/09/02 12:26:14;;;;;;;3.80;0.63;;;16.60;99.90;;;;;;4952428;28;20557;-64
2021/09/02 12:28:44;;;;;;;1.25;0.95;;;16.60;99.90;;;;;;4967563;28;20130;-69
2021/09/02 12:31:15;;;;;;;1.98;0.63;;;16.50;99.90;;;;;;4952910;28;20055;-66
2021/09/02 12:34:03;;;;;;;3.03;0.82;;;16.60;99.90;;;;;;4951048;28;20062;-70
2021/09/02 12:36:35;;;;;;;3.10;0.90;;;16.80;99.90;;;;;;4952593;28;20047;-67
2021/09/02 12:39:21;;;;;;;1.83;0.82;;;16.60;99.90;;;;;;4952684;28;20074;-71
2021/09/02 12:41:56;;;;;;;2.35;0.80;;;16.70;99.90;;;;;;4950541;28;20410;-65
2021/09/02 12:44:30;;;;;;;3.03;0.82;;;16.70;99.90;;;;;;4952250;28;20054;-67
2021/09/02 12:47:08;;;;;;;7.88;1.10;;;16.70;99.90;;;;;;4952054;28;20063;-65
2021/09/02 12:49:37;;;;;;;3.63;0.63;;;16.80;99.90;;;;;;4952549;28;20071;-66
2021/09/02 12:52:10;;;;;;;1.93;0.80;;;16.90;99.90;;;;;;4950859;28;20074;-70
2021/09/02 12:55:04;;;;;;;1.85;1.48;;;16.90;99.90;;;;;;4951816;28;20274;-66